»·PEaware :: COWBOY21 KLAS-KLSV

COWBOY21 :: KLAS-KLSV

FLIGHT INFORMATION

Flight Status: Arrived
Operator: Unknown
More flights by this operator :: More flights under this callsign
Pilot: Anonymous 3903 (3903)
Aircraft: NORTHROP F-5 FREEDON FIGHTER
(F5)
More flights by this aircraft type
Origin: KLAS McCarran Intl
United States
Destination: KLSV Nellis AFB
United States
More flights between these airports :: More routes between these airports
Route: +LSV
File this flight plan on PilotEdge
Remarks: DCS
Altitude:
(Current/Filed)
22,000ft
Speed:
(Current/Filed)
325kts
Departed: 01-Dec-17 07:38 PM
Arrived: 01-Dec-17 08:39 PM
Distance/Time
Traveled:
11nm/1:01
Distance/Time
To Go:
Arrived

Flight Plot

Page will automatically refresh every two minutes.

Flight plan parsing failed; only flown route is shown


Map Options




Map Legend


Flown Route
Filed Route
Departure Airport
Arrival Airport
Navaid (VOR, NDB)
Fix

Horizontal Profiles

Position Reports

Time Latitude Longitude Heading Altitude Ground
Speed
01-Dec-17 19:08 36.082587 -115.129360 270 2056ft 0kts
01-Dec-17 19:09 36.082587 -115.129360 270 2056ft 0kts
01-Dec-17 19:10 36.082587 -115.129360 270 2056ft 0kts
01-Dec-17 19:11 36.082587 -115.129360 270 2056ft 0kts
01-Dec-17 19:12 36.082587 -115.129360 270 2056ft 0kts
01-Dec-17 19:13 36.082587 -115.129360 270 2056ft 0kts
01-Dec-17 19:14 36.082587 -115.129360 270 2056ft 0kts
01-Dec-17 19:15 36.082587 -115.129360 270 2056ft 0kts
01-Dec-17 19:16 36.082587 -115.129360 270 2056ft 0kts
01-Dec-17 19:17 36.082588 -115.129410 270 2056ft 6kts
01-Dec-17 19:18 36.078903 -115.130242 179 2086ft 5kts
01-Dec-17 19:19 36.078261 -115.123838 87 2072ft 17kts
01-Dec-17 19:20 36.077778 -115.122323 133 2068ft 0kts
01-Dec-17 19:21 36.077718 -115.122244 131 2067ft 0kts
01-Dec-17 19:22 36.077661 -115.122164 128 2067ft 0kts
01-Dec-17 19:23 36.077605 -115.122078 126 2067ft 0kts
01-Dec-17 19:24 36.077552 -115.121987 123 2067ft 0kts
01-Dec-17 19:25 36.077502 -115.121893 121 2066ft 0kts
01-Dec-17 19:26 36.077455 -115.121796 118 2066ft 0kts
01-Dec-17 19:27 36.077412 -115.121697 116 2066ft 0kts
01-Dec-17 19:28 36.077372 -115.121593 113 2066ft 0kts
01-Dec-17 19:29 36.077335 -115.121486 110 2065ft 0kts
01-Dec-17 19:30 36.077302 -115.121377 108 2065ft 0kts
01-Dec-17 19:31 36.077274 -115.121267 105 2065ft 0kts
01-Dec-17 19:32 36.077270 -115.121248 105 2065ft 0kts
01-Dec-17 19:34 36.082587 -115.129360 270 2056ft 0kts
01-Dec-17 19:35 36.082587 -115.129360 270 2056ft 0kts
01-Dec-17 19:36 36.082587 -115.129360 270 2056ft 0kts
01-Dec-17 19:37 36.082587 -115.129360 270 2056ft 0kts
01-Dec-17 19:38 36.080622 -115.130244 179 2072ft 23kts
01-Dec-17 19:39 36.077538 -115.127025 88 2080ft 33kts
01-Dec-17 19:40 36.077324 -115.122471 149 2068ft 0kts
01-Dec-17 19:41 36.077324 -115.122471 149 2068ft 0kts
01-Dec-17 19:42 36.077324 -115.122471 149 2068ft 0kts
01-Dec-17 19:43 36.076407 -115.125820 268 2077ft 43kts
01-Dec-17 19:44 36.064668 -115.188666 213 3956ft 248kts
01-Dec-17 19:45 35.998033 -115.204913 162 7635ft 253kts
01-Dec-17 19:46 35.992005 -115.129089 29 9936ft 312kts
01-Dec-17 19:47 36.088966 -115.087328 18 10121ft 418kts
01-Dec-17 19:48 36.201144 -115.024441 7 9934ft 469kts
01-Dec-17 19:49 36.306950 -114.970275 46 8996ft 336kts
01-Dec-17 19:50 36.360812 -114.899045 44 9117ft 258kts
01-Dec-17 19:51 36.419009 -114.824063 44 9025ft 345kts
01-Dec-17 19:52 36.493336 -114.739361 43 9035ft 338kts
01-Dec-17 19:53 36.509367 -114.640687 90 9055ft 298kts
01-Dec-17 19:54 36.548208 -114.565685 354 9121ft 286kts
01-Dec-17 19:55 36.578446 -114.633470 232 8962ft 275kts
01-Dec-17 19:56 36.523646 -114.705867 223 9189ft 292kts
01-Dec-17 19:57 36.463087 -114.774999 223 7742ft 292kts
01-Dec-17 19:58 36.404862 -114.844047 219 5028ft 286kts
01-Dec-17 19:59 36.351267 -114.907098 220 4409ft 267kts
01-Dec-17 20:00 36.292812 -114.970335 218 3538ft 285kts
01-Dec-17 20:01 36.243342 -115.027688 224 2908ft 238kts
01-Dec-17 20:02 36.222642 -115.112752 304 7425ft 287kts
01-Dec-17 20:03 36.298249 -115.130546 29 11187ft 341kts
01-Dec-17 20:04 36.380865 -115.062592 34 15162ft 369kts
01-Dec-17 20:05 36.472343 -114.983982 31 15093ft 395kts
01-Dec-17 20:06 36.568405 -114.948344 13 15067ft 339kts
01-Dec-17 20:07 36.661866 -114.923125 10 15115ft 358kts
01-Dec-17 20:08 36.756469 -114.883205 51 14999ft 345kts
01-Dec-17 20:09 36.805906 -114.782125 59 15099ft 352kts
01-Dec-17 20:10 36.879745 -114.742557 322 15011ft 305kts
01-Dec-17 20:11 36.879794 -114.837713 217 15091ft 346kts
01-Dec-17 20:12 36.782455 -114.881819 195 15057ft 381kts
01-Dec-17 20:13 36.687675 -114.884748 137 14927ft 336kts
01-Dec-17 20:14 36.695410 -114.793179 26 15008ft 316kts
01-Dec-17 20:15 36.789800 -114.763205 9 15151ft 377kts
01-Dec-17 20:16 36.889319 -114.759843 324 15058ft 338kts
01-Dec-17 20:17 36.887859 -114.858896 210 14981ft 330kts
01-Dec-17 20:18 36.800596 -114.889361 190 15121ft 332kts
01-Dec-17 20:19 36.709407 -114.907869 171 15092ft 326kts
01-Dec-17 20:20 36.672963 -114.820973 61 15108ft 354kts
01-Dec-17 20:21 36.753032 -114.801297 305 14927ft 333kts
01-Dec-17 20:22 36.713380 -114.886313 192 15033ft 372kts
01-Dec-17 20:23 36.615748 -114.918024 191 15003ft 340kts
01-Dec-17 20:24 36.528882 -114.944622 194 15006ft 310kts
01-Dec-17 20:25 36.438139 -114.975805 196 15137ft 373kts
01-Dec-17 20:26 36.333704 -115.005903 188 15016ft 373kts
01-Dec-17 20:27 36.243413 -115.043365 236 14931ft 328kts
01-Dec-17 20:28 36.267633 -115.149120 317 15039ft 378kts
01-Dec-17 20:29 36.329045 -115.244541 297 14998ft 356kts
01-Dec-17 20:30 36.375568 -115.361531 303 15115ft 397kts
01-Dec-17 20:31 36.470540 -115.420993 332 15096ft 358kts
01-Dec-17 20:32 36.477609 -115.508077 200 15001ft 296kts
01-Dec-17 20:33 36.410261 -115.460264 114 15054ft 331kts
01-Dec-17 20:34 36.368960 -115.352441 113 14958ft 359kts
01-Dec-17 20:35 36.357062 -115.242996 43 13373ft 313kts
01-Dec-17 20:36 36.423354 -115.169028 50 10268ft 328kts
01-Dec-17 20:37 36.452971 -115.071988 88 8842ft 288kts
01-Dec-17 20:38 36.447397 -114.973606 94 8934ft 299kts
01-Dec-17 20:39 36.418037 -114.876122 127 7927ft 312kts
01-Dec-17 20:40 36.351028 -114.879156 234 5134ft 269kts
01-Dec-17 20:41 36.308418 -114.944895 231 3412ft 249kts
01-Dec-17 20:42 36.263394 -115.002501 218 2368ft 186kts
01-Dec-17 20:43 36.233458 -115.034934 221 1847ft 42kts
01-Dec-17 20:44 36.234892 -115.040324 218 1857ft 10kts

Navigation Log

Ident Type
Flight plan parsing failed, navigation log unavailable